sensor_id;sensor_type;location;lat;lon;timestamp;P1;durP1;ratioP1;P2;durP2;ratioP2
59790;SDS011;47431;51.640;5.554;2023-02-11T00:01:56;44.13;;;32.70;;
59790;SDS011;47431;51.640;5.554;2023-02-11T00:04:24;53.67;;;30.30;;
59790;SDS011;47431;51.640;5.554;2023-02-11T00:06:49;40.45;;;27.63;;
59790;SDS011;47431;51.640;5.554;2023-02-11T00:09:14;42.40;;;29.25;;
59790;SDS011;47431;51.640;5.554;2023-02-11T00:11:39;33.65;;;24.27;;
59790;SDS011;47431;51.640;5.554;2023-02-11T00:14:05;41.78;;;26.05;;
59790;SDS011;47431;51.640;5.554;2023-02-11T00:16:32;35.38;;;25.73;;
59790;SDS011;47431;51.640;5.554;2023-02-11T00:18:58;39.90;;;26.13;;
59790;SDS011;47431;51.640;5.554;2023-02-11T00:21:24;36.95;;;23.55;;
59790;SDS011;47431;51.640;5.554;2023-02-11T00:23:50;31.17;;;23.13;;
59790;SDS011;47431;51.640;5.554;2023-02-11T00:26:17;40.40;;;23.33;;
59790;SDS011;47431;51.640;5.554;2023-02-11T00:28:43;35.78;;;23.85;;
59790;SDS011;47431;51.640;5.554;2023-02-11T00:31:08;37.80;;;23.65;;
59790;SDS011;47431;51.640;5.554;2023-02-11T00:33:33;29.33;;;21.95;;
59790;SDS011;47431;51.640;5.554;2023-02-11T00:36:02;39.53;;;20.58;;
59790;SDS011;47431;51.640;5.554;2023-02-11T00:38:28;33.65;;;22.65;;
59790;SDS011;47431;51.640;5.554;2023-02-11T00:40:53;34.90;;;21.80;;
59790;SDS011;47431;51.640;5.554;2023-02-11T00:43:18;33.17;;;19.08;;
59790;SDS011;47431;51.640;5.554;2023-02-11T00:45:43;31.35;;;20.17;;
59790;SDS011;47431;51.640;5.554;2023-02-11T00:48:08;36.13;;;20.38;;
59790;SDS011;47431;51.640;5.554;2023-02-11T00:50:34;32.55;;;19.52;;
59790;SDS011;47431;51.640;5.554;2023-02-11T00:52:59;34.60;;;19.52;;
59790;SDS011;47431;51.640;5.554;2023-02-11T00:55:24;28.48;;;18.55;;
59790;SDS011;47431;51.640;5.554;2023-02-11T00:57:49;31.70;;;16.25;;
59790;SDS011;47431;51.640;5.554;2023-02-11T01:00:15;40.10;;;18.23;;
59790;SDS011;47431;51.640;5.554;2023-02-11T01:02:40;27.00;;;16.77;;
59790;SDS011;47431;51.640;5.554;2023-02-11T01:05:06;35.25;;;17.17;;
59790;SDS011;47431;51.640;5.554;2023-02-11T01:07:31;39.85;;;16.83;;
59790;SDS011;47431;51.640;5.554;2023-02-11T01:09:56;31.45;;;16.85;;
59790;SDS011;47431;51.640;5.554;2023-02-11T01:12:22;28.10;;;15.55;;
59790;SDS011;47431;51.640;5.554;2023-02-11T01:14:47;20.63;;;14.43;;
59790;SDS011;47431;51.640;5.554;2023-02-11T01:17:12;38.15;;;17.17;;
59790;SDS011;47431;51.640;5.554;2023-02-11T01:19:37;24.10;;;15.65;;
59790;SDS011;47431;51.640;5.554;2023-02-11T01:22:03;26.17;;;16.08;;
59790;SDS011;47431;51.640;5.554;2023-02-11T01:24:28;34.53;;;15.95;;
59790;SDS011;47431;51.640;5.554;2023-02-11T01:26:53;33.17;;;15.48;;
59790;SDS011;47431;51.640;5.554;2023-02-11T01:29:19;29.13;;;16.30;;
59790;SDS011;47431;51.640;5.554;2023-02-11T01:31:44;24.42;;;14.05;;
59790;SDS011;47431;51.640;5.554;2023-02-11T01:34:09;22.95;;;13.73;;
59790;SDS011;47431;51.640;5.554;2023-02-11T01:36:34;28.20;;;15.65;;
59790;SDS011;47431;51.640;5.554;2023-02-11T01:39:00;29.23;;;15.38;;
59790;SDS011;47431;51.640;5.554;2023-02-11T01:41:25;32.83;;;16.02;;
59790;SDS011;47431;51.640;5.554;2023-02-11T01:43:50;30.50;;;15.32;;
59790;SDS011;47431;51.640;5.554;2023-02-11T01:46:35;34.70;;;14.75;;
59790;SDS011;47431;51.640;5.554;2023-02-11T01:49:05;34.30;;;15.10;;
59790;SDS011;47431;51.640;5.554;2023-02-11T01:51:38;41.53;;;15.23;;
59790;SDS011;47431;51.640;5.554;2023-02-11T01:54:04;29.38;;;15.98;;
59790;SDS011;47431;51.640;5.554;2023-02-11T01:56:49;36.70;;;14.77;;
59790;SDS011;47431;51.640;5.554;2023-02-11T01:59:50;28.98;;;14.77;;
59790;SDS011;47431;51.640;5.554;2023-02-11T02:07:35;22.85;;;14.23;;
59790;SDS011;47431;51.640;5.554;2023-02-11T02:12:27;35.15;;;14.68;;
59790;SDS011;47431;51.640;5.554;2023-02-11T02:15:09;31.92;;;14.77;;
59790;SDS011;47431;51.640;5.554;2023-02-11T02:17:37;29.80;;;15.57;;
59790;SDS011;47431;51.640;5.554;2023-02-11T02:23:01;39.13;;;17.08;;
59790;SDS011;47431;51.640;5.554;2023-02-11T02:35:41;36.65;;;16.17;;
59790;SDS011;47431;51.640;5.554;2023-02-11T02:38:10;35.75;;;16.50;;
59790;SDS011;47431;51.640;5.554;2023-02-11T02:40:40;38.25;;;16.80;;
59790;SDS011;47431;51.640;5.554;2023-02-11T02:43:06;36.78;;;17.45;;
59790;SDS011;47431;51.640;5.554;2023-02-11T02:45:33;31.98;;;17.88;;
59790;SDS011;47431;51.640;5.554;2023-02-11T02:47:58;37.22;;;18.55;;
59790;SDS011;47431;51.640;5.554;2023-02-11T02:50:25;32.90;;;16.13;;
59790;SDS011;47431;51.640;5.554;2023-02-11T03:05:40;40.80;;;17.27;;
59790;SDS011;47431;51.640;5.554;2023-02-11T03:08:23;43.65;;;19.65;;
59790;SDS011;47431;51.640;5.554;2023-02-11T03:10:49;33.13;;;17.17;;
59790;SDS011;47431;51.640;5.554;2023-02-11T03:13:16;29.65;;;17.83;;
59790;SDS011;47431;51.640;5.554;2023-02-11T03:15:43;46.25;;;16.67;;
59790;SDS011;47431;51.640;5.554;2023-02-11T03:18:08;32.17;;;16.95;;
59790;SDS011;47431;51.640;5.554;2023-02-11T03:20:35;30.23;;;17.23;;
59790;SDS011;47431;51.640;5.554;2023-02-11T03:23:07;41.00;;;17.70;;
59790;SDS011;47431;51.640;5.554;2023-02-11T03:25:43;35.17;;;18.45;;
59790;SDS011;47431;51.640;5.554;2023-02-11T03:28:13;45.88;;;18.27;;
59790;SDS011;47431;51.640;5.554;2023-02-11T03:30:48;59.42;;;18.88;;
59790;SDS011;47431;51.640;5.554;2023-02-11T03:33:34;31.80;;;17.15;;
59790;SDS011;47431;51.640;5.554;2023-02-11T03:36:02;27.95;;;16.63;;
59790;SDS011;47431;51.640;5.554;2023-02-11T03:38:32;41.55;;;18.65;;
59790;SDS011;47431;51.640;5.554;2023-02-11T03:40:59;51.30;;;20.42;;
59790;SDS011;47431;51.640;5.554;2023-02-11T03:43:39;34.17;;;18.02;;
59790;SDS011;47431;51.640;5.554;2023-02-11T03:46:06;32.67;;;18.00;;
59790;SDS011;47431;51.640;5.554;2023-02-11T03:48:38;44.75;;;18.30;;
59790;SDS011;47431;51.640;5.554;2023-02-11T03:51:05;33.78;;;17.17;;
59790;SDS011;47431;51.640;5.554;2023-02-11T03:53:31;36.10;;;16.85;;
59790;SDS011;47431;51.640;5.554;2023-02-11T03:55:57;28.85;;;16.75;;
59790;SDS011;47431;51.640;5.554;2023-02-11T03:58:24;38.13;;;17.63;;
59790;SDS011;47431;51.640;5.554;2023-02-11T04:00:49;42.72;;;19.58;;
59790;SDS011;47431;51.640;5.554;2023-02-11T04:03:15;45.60;;;18.20;;
59790;SDS011;47431;51.640;5.554;2023-02-11T04:05:40;44.35;;;19.70;;
59790;SDS011;47431;51.640;5.554;2023-02-11T04:08:05;45.88;;;19.77;;
59790;SDS011;47431;51.640;5.554;2023-02-11T04:10:31;34.58;;;17.90;;
59790;SDS011;47431;51.640;5.554;2023-02-11T04:12:56;35.00;;;17.92;;
59790;SDS011;47431;51.640;5.554;2023-02-11T04:15:21;48.55;;;22.75;;
59790;SDS011;47431;51.640;5.554;2023-02-11T04:17:47;52.75;;;19.75;;
59790;SDS011;47431;51.640;5.554;2023-02-11T04:20:12;33.83;;;19.08;;
59790;SDS011;47431;51.640;5.554;2023-02-11T04:22:37;37.10;;;18.55;;
59790;SDS011;47431;51.640;5.554;2023-02-11T04:25:03;36.40;;;19.40;;
59790;SDS011;47431;51.640;5.554;2023-02-11T04:27:29;30.55;;;18.95;;
59790;SDS011;47431;51.640;5.554;2023-02-11T04:29:54;50.65;;;19.80;;
59790;SDS011;47431;51.640;5.554;2023-02-11T04:32:19;38.75;;;18.35;;
59790;SDS011;47431;51.640;5.554;2023-02-11T04:34:45;30.63;;;17.30;;
59790;SDS011;47431;51.640;5.554;2023-02-11T04:37:10;41.25;;;19.67;;
59790;SDS011;47431;51.640;5.554;2023-02-11T04:39:35;61.60;;;19.92;;
59790;SDS011;47431;51.640;5.554;2023-02-11T04:42:01;44.08;;;19.65;;
59790;SDS011;47431;51.640;5.554;2023-02-11T04:44:26;53.25;;;22.50;;
59790;SDS011;47431;51.640;5.554;2023-02-11T04:46:51;49.80;;;19.02;;
59790;SDS011;47431;51.640;5.554;2023-02-11T04:49:16;44.40;;;18.38;;
59790;SDS011;47431;51.640;5.554;2023-02-11T04:51:42;40.40;;;20.10;;
59790;SDS011;47431;51.640;5.554;2023-02-11T04:54:08;38.25;;;20.05;;
59790;SDS011;47431;51.640;5.554;2023-02-11T04:56:34;43.72;;;21.73;;
59790;SDS011;47431;51.640;5.554;2023-02-11T04:58:59;35.85;;;19.27;;
59790;SDS011;47431;51.640;5.554;2023-02-11T05:01:24;40.30;;;21.25;;
59790;SDS011;47431;51.640;5.554;2023-02-11T05:03:50;40.78;;;19.88;;
59790;SDS011;47431;51.640;5.554;2023-02-11T05:06:15;36.92;;;20.20;;
59790;SDS011;47431;51.640;5.554;2023-02-11T05:08:40;42.70;;;19.35;;
59790;SDS011;47431;51.640;5.554;2023-02-11T05:11:06;47.47;;;21.75;;
59790;SDS011;47431;51.640;5.554;2023-02-11T05:13:32;40.40;;;19.35;;
59790;SDS011;47431;51.640;5.554;2023-02-11T05:15:57;35.95;;;19.75;;
59790;SDS011;47431;51.640;5.554;2023-02-11T05:18:22;41.15;;;21.35;;
59790;SDS011;47431;51.640;5.554;2023-02-11T05:20:47;35.53;;;21.25;;
59790;SDS011;47431;51.640;5.554;2023-02-11T05:23:13;34.90;;;19.98;;
59790;SDS011;47431;51.640;5.554;2023-02-11T05:25:38;51.58;;;22.60;;
59790;SDS011;47431;51.640;5.554;2023-02-11T05:28:03;41.35;;;20.67;;
59790;SDS011;47431;51.640;5.554;2023-02-11T05:30:29;42.80;;;21.83;;
59790;SDS011;47431;51.640;5.554;2023-02-11T05:32:55;43.90;;;21.15;;
59790;SDS011;47431;51.640;5.554;2023-02-11T05:35:20;40.28;;;21.67;;
59790;SDS011;47431;51.640;5.554;2023-02-11T05:37:46;36.92;;;20.73;;
59790;SDS011;47431;51.640;5.554;2023-02-11T05:40:11;43.13;;;24.65;;
59790;SDS011;47431;51.640;5.554;2023-02-11T05:42:36;43.80;;;24.83;;
59790;SDS011;47431;51.640;5.554;2023-02-11T05:45:01;60.33;;;24.77;;
59790;SDS011;47431;51.640;5.554;2023-02-11T05:47:27;41.28;;;24.42;;
59790;SDS011;47431;51.640;5.554;2023-02-11T05:49:52;48.28;;;24.65;;
59790;SDS011;47431;51.640;5.554;2023-02-11T05:52:18;47.22;;;22.90;;
59790;SDS011;47431;51.640;5.554;2023-02-11T05:54:43;51.78;;;25.40;;
59790;SDS011;47431;51.640;5.554;2023-02-11T05:57:09;43.30;;;24.63;;
59790;SDS011;47431;51.640;5.554;2023-02-11T05:59:34;41.80;;;25.15;;
59790;SDS011;47431;51.640;5.554;2023-02-11T06:01:59;43.60;;;25.42;;
59790;SDS011;47431;51.640;5.554;2023-02-11T06:04:24;51.08;;;28.98;;
59790;SDS011;47431;51.640;5.554;2023-02-11T06:06:50;63.80;;;28.70;;
59790;SDS011;47431;51.640;5.554;2023-02-11T06:09:15;40.90;;;24.55;;
59790;SDS011;47431;51.640;5.554;2023-02-11T06:11:40;46.30;;;25.42;;
59790;SDS011;47431;51.640;5.554;2023-02-11T06:14:05;49.22;;;26.23;;
59790;SDS011;47431;51.640;5.554;2023-02-11T06:16:31;45.42;;;26.27;;
59790;SDS011;47431;51.640;5.554;2023-02-11T06:18:56;48.65;;;27.27;;
59790;SDS011;47431;51.640;5.554;2023-02-11T06:21:21;58.13;;;26.60;;
59790;SDS011;47431;51.640;5.554;2023-02-11T06:23:46;53.28;;;28.30;;
59790;SDS011;47431;51.640;5.554;2023-02-11T06:26:19;41.58;;;27.77;;
59790;SDS011;47431;51.640;5.554;2023-02-11T06:28:44;48.20;;;29.50;;
59790;SDS011;47431;51.640;5.554;2023-02-11T06:31:10;47.95;;;25.55;;
59790;SDS011;47431;51.640;5.554;2023-02-11T06:33:35;42.13;;;26.60;;
59790;SDS011;47431;51.640;5.554;2023-02-11T06:36:01;55.55;;;30.15;;
59790;SDS011;47431;51.640;5.554;2023-02-11T06:38:26;52.38;;;27.45;;
59790;SDS011;47431;51.640;5.554;2023-02-11T06:40:51;52.55;;;31.65;;
59790;SDS011;47431;51.640;5.554;2023-02-11T06:43:16;52.55;;;28.23;;
59790;SDS011;47431;51.640;5.554;2023-02-11T06:45:42;45.28;;;29.20;;
59790;SDS011;47431;51.640;5.554;2023-02-11T06:48:07;50.58;;;28.73;;
59790;SDS011;47431;51.640;5.554;2023-02-11T06:50:32;65.78;;;30.42;;
59790;SDS011;47431;51.640;5.554;2023-02-11T06:52:58;52.08;;;29.20;;
59790;SDS011;47431;51.640;5.554;2023-02-11T06:55:23;59.75;;;33.60;;
59790;SDS011;47431;51.640;5.554;2023-02-11T06:57:49;47.97;;;31.90;;
59790;SDS011;47431;51.640;5.554;2023-02-11T07:00:14;52.90;;;33.25;;
59790;SDS011;47431;51.640;5.554;2023-02-11T07:02:39;55.55;;;31.88;;
59790;SDS011;47431;51.640;5.554;2023-02-11T07:05:05;57.90;;;35.17;;
59790;SDS011;47431;51.640;5.554;2023-02-11T07:07:31;64.03;;;36.05;;
59790;SDS011;47431;51.640;5.554;2023-02-11T07:09:56;58.92;;;31.52;;
59790;SDS011;47431;51.640;5.554;2023-02-11T07:12:22;63.33;;;39.53;;
59790;SDS011;47431;51.640;5.554;2023-02-11T07:14:47;66.40;;;34.50;;
59790;SDS011;47431;51.640;5.554;2023-02-11T07:17:12;62.40;;;34.85;;
59790;SDS011;47431;51.640;5.554;2023-02-11T07:19:37;57.15;;;34.65;;
59790;SDS011;47431;51.640;5.554;2023-02-11T07:22:03;62.63;;;37.35;;
59790;SDS011;47431;51.640;5.554;2023-02-11T07:24:28;61.35;;;37.28;;
59790;SDS011;47431;51.640;5.554;2023-02-11T07:26:53;59.60;;;35.25;;
59790;SDS011;47431;51.640;5.554;2023-02-11T07:29:18;58.08;;;33.40;;
59790;SDS011;47431;51.640;5.554;2023-02-11T07:31:44;58.40;;;35.53;;
59790;SDS011;47431;51.640;5.554;2023-02-11T07:34:09;57.13;;;34.60;;
59790;SDS011;47431;51.640;5.554;2023-02-11T07:36:34;60.95;;;37.95;;
59790;SDS011;47431;51.640;5.554;2023-02-11T07:39:00;75.25;;;36.60;;
59790;SDS011;47431;51.640;5.554;2023-02-11T07:41:26;67.10;;;38.63;;
59790;SDS011;47431;51.640;5.554;2023-02-11T07:43:52;63.95;;;36.63;;
59790;SDS011;47431;51.640;5.554;2023-02-11T07:46:18;59.58;;;37.65;;
59790;SDS011;47431;51.640;5.554;2023-02-11T07:48:43;70.97;;;36.92;;
59790;SDS011;47431;51.640;5.554;2023-02-11T07:51:12;70.03;;;39.63;;
59790;SDS011;47431;51.640;5.554;2023-02-11T07:53:38;63.05;;;40.55;;
59790;SDS011;47431;51.640;5.554;2023-02-11T07:56:04;69.22;;;41.58;;
59790;SDS011;47431;51.640;5.554;2023-02-11T07:58:29;76.30;;;40.10;;
59790;SDS011;47431;51.640;5.554;2023-02-11T08:00:58;68.90;;;41.38;;
59790;SDS011;47431;51.640;5.554;2023-02-11T08:03:24;72.38;;;43.42;;
59790;SDS011;47431;51.640;5.554;2023-02-11T08:05:49;66.35;;;40.92;;
59790;SDS011;47431;51.640;5.554;2023-02-11T08:08:14;56.50;;;36.95;;
59790;SDS011;47431;51.640;5.554;2023-02-11T08:10:39;63.33;;;37.03;;
59790;SDS011;47431;51.640;5.554;2023-02-11T08:13:05;56.78;;;38.72;;
59790;SDS011;47431;51.640;5.554;2023-02-11T08:15:30;74.13;;;40.30;;
59790;SDS011;47431;51.640;5.554;2023-02-11T08:17:55;65.20;;;39.08;;
59790;SDS011;47431;51.640;5.554;2023-02-11T08:20:20;63.88;;;41.08;;
59790;SDS011;47431;51.640;5.554;2023-02-11T08:22:45;70.13;;;39.88;;
59790;SDS011;47431;51.640;5.554;2023-02-11T08:25:11;65.03;;;39.00;;
59790;SDS011;47431;51.640;5.554;2023-02-11T08:27:36;64.25;;;41.28;;
59790;SDS011;47431;51.640;5.554;2023-02-11T08:30:01;71.00;;;40.45;;
59790;SDS011;47431;51.640;5.554;2023-02-11T08:32:26;63.28;;;40.03;;
59790;SDS011;47431;51.640;5.554;2023-02-11T08:34:52;90.75;;;43.92;;
59790;SDS011;47431;51.640;5.554;2023-02-11T08:37:18;79.88;;;42.13;;
59790;SDS011;47431;51.640;5.554;2023-02-11T08:39:43;73.60;;;41.20;;
59790;SDS011;47431;51.640;5.554;2023-02-11T08:42:08;65.50;;;40.08;;
59790;SDS011;47431;51.640;5.554;2023-02-11T08:44:33;75.20;;;39.85;;
59790;SDS011;47431;51.640;5.554;2023-02-11T08:46:59;66.32;;;40.97;;
59790;SDS011;47431;51.640;5.554;2023-02-11T08:49:24;69.43;;;43.47;;
59790;SDS011;47431;51.640;5.554;2023-02-11T08:51:49;73.25;;;39.35;;
59790;SDS011;47431;51.640;5.554;2023-02-11T08:54:14;86.40;;;49.10;;
59790;SDS011;47431;51.640;5.554;2023-02-11T08:56:40;83.47;;;47.85;;
59790;SDS011;47431;51.640;5.554;2023-02-11T08:59:05;91.43;;;46.38;;
59790;SDS011;47431;51.640;5.554;2023-02-11T09:01:31;83.05;;;48.50;;
59790;SDS011;47431;51.640;5.554;2023-02-11T09:03:57;74.18;;;43.63;;
59790;SDS011;47431;51.640;5.554;2023-02-11T09:06:23;71.03;;;45.97;;
59790;SDS011;47431;51.640;5.554;2023-02-11T09:08:49;79.85;;;46.55;;
59790;SDS011;47431;51.640;5.554;2023-02-11T09:11:15;76.55;;;42.00;;
59790;SDS011;47431;51.640;5.554;2023-02-11T09:13:41;68.97;;;39.47;;
59790;SDS011;47431;51.640;5.554;2023-02-11T09:16:07;60.40;;;40.55;;
59790;SDS011;47431;51.640;5.554;2023-02-11T09:18:32;73.82;;;43.67;;
59790;SDS011;47431;51.640;5.554;2023-02-11T09:21:07;70.93;;;43.45;;
59790;SDS011;47431;51.640;5.554;2023-02-11T09:23:32;71.53;;;42.88;;
59790;SDS011;47431;51.640;5.554;2023-02-11T09:26:08;63.95;;;39.17;;
59790;SDS011;47431;51.640;5.554;2023-02-11T09:28:34;70.07;;;40.55;;
59790;SDS011;47431;51.640;5.554;2023-02-11T09:31:03;65.32;;;41.58;;
59790;SDS011;47431;51.640;5.554;2023-02-11T09:33:29;73.45;;;43.42;;
59790;SDS011;47431;51.640;5.554;2023-02-11T09:35:54;79.18;;;45.90;;
59790;SDS011;47431;51.640;5.554;2023-02-11T09:38:19;69.22;;;43.55;;
59790;SDS011;47431;51.640;5.554;2023-02-11T09:40:44;58.97;;;37.92;;
59790;SDS011;47431;51.640;5.554;2023-02-11T09:43:15;79.50;;;46.35;;
59790;SDS011;47431;51.640;5.554;2023-02-11T09:45:41;72.72;;;41.17;;
59790;SDS011;47431;51.640;5.554;2023-02-11T09:48:13;82.45;;;47.55;;
59790;SDS011;47431;51.640;5.554;2023-02-11T09:50:41;101.85;;;44.95;;
59790;SDS011;47431;51.640;5.554;2023-02-11T09:53:15;87.00;;;45.45;;
59790;SDS011;47431;51.640;5.554;2023-02-11T09:55:42;64.53;;;44.03;;
59790;SDS011;47431;51.640;5.554;2023-02-11T10:03:27;83.95;;;48.88;;
59790;SDS011;47431;51.640;5.554;2023-02-11T10:11:21;65.53;;;47.58;;
59790;SDS011;47431;51.640;5.554;2023-02-11T10:21:44;87.43;;;48.47;;
59790;SDS011;47431;51.640;5.554;2023-02-11T10:24:14;67.60;;;44.50;;
59790;SDS011;47431;51.640;5.554;2023-02-11T10:26:39;70.90;;;46.85;;
59790;SDS011;47431;51.640;5.554;2023-02-11T10:29:11;67.30;;;46.03;;
59790;SDS011;47431;51.640;5.554;2023-02-11T10:31:40;81.50;;;45.55;;
59790;SDS011;47431;51.640;5.554;2023-02-11T10:34:08;78.82;;;44.63;;
59790;SDS011;47431;51.640;5.554;2023-02-11T10:36:35;60.95;;;43.78;;
59790;SDS011;47431;51.640;5.554;2023-02-11T10:39:01;65.95;;;47.15;;
59790;SDS011;47431;51.640;5.554;2023-02-11T10:41:30;77.18;;;50.67;;
59790;SDS011;47431;51.640;5.554;2023-02-11T10:43:58;81.95;;;50.10;;
59790;SDS011;47431;51.640;5.554;2023-02-11T10:46:24;83.20;;;50.33;;
59790;SDS011;47431;51.640;5.554;2023-02-11T10:48:52;74.88;;;47.47;;
59790;SDS011;47431;51.640;5.554;2023-02-11T10:51:24;65.18;;;40.55;;
59790;SDS011;47431;51.640;5.554;2023-02-11T10:56:25;72.80;;;46.38;;
59790;SDS011;47431;51.640;5.554;2023-02-11T10:58:55;67.10;;;48.15;;
59790;SDS011;47431;51.640;5.554;2023-02-11T11:01:21;86.60;;;45.70;;
59790;SDS011;47431;51.640;5.554;2023-02-11T11:03:50;67.50;;;45.45;;
59790;SDS011;47431;51.640;5.554;2023-02-11T11:06:16;97.07;;;44.45;;
59790;SDS011;47431;51.640;5.554;2023-02-11T11:08:52;75.53;;;46.47;;
59790;SDS011;47431;51.640;5.554;2023-02-11T11:11:21;65.22;;;41.65;;
59790;SDS011;47431;51.640;5.554;2023-02-11T11:18:47;69.22;;;44.08;;
59790;SDS011;47431;51.640;5.554;2023-02-11T11:21:14;66.45;;;41.10;;
59790;SDS011;47431;51.640;5.554;2023-02-11T11:23:40;70.72;;;44.58;;
59790;SDS011;47431;51.640;5.554;2023-02-11T11:26:11;75.65;;;42.00;;
59790;SDS011;47431;51.640;5.554;2023-02-11T11:31:03;65.85;;;41.50;;
59790;SDS011;47431;51.640;5.554;2023-02-11T11:33:30;65.65;;;40.35;;
59790;SDS011;47431;51.640;5.554;2023-02-11T11:36:03;79.47;;;37.92;;
59790;SDS011;47431;51.640;5.554;2023-02-11T11:38:30;62.25;;;36.92;;
59790;SDS011;47431;51.640;5.554;2023-02-11T11:41:16;66.05;;;37.20;;
59790;SDS011;47431;51.640;5.554;2023-02-11T11:43:52;45.97;;;33.28;;
59790;SDS011;47431;51.640;5.554;2023-02-11T11:46:21;54.60;;;36.40;;
59790;SDS011;47431;51.640;5.554;2023-02-11T11:48:47;54.92;;;35.30;;
59790;SDS011;47431;51.640;5.554;2023-02-11T11:51:14;60.97;;;35.90;;
59790;SDS011;47431;51.640;5.554;2023-02-11T11:53:44;61.05;;;37.45;;
59790;SDS011;47431;51.640;5.554;2023-02-11T11:56:15;47.25;;;33.75;;
59790;SDS011;47431;51.640;5.554;2023-02-11T11:58:42;67.30;;;38.10;;
59790;SDS011;47431;51.640;5.554;2023-02-11T12:09:14;53.55;;;36.50;;
59790;SDS011;47431;51.640;5.554;2023-02-11T12:11:48;57.90;;;32.75;;
59790;SDS011;47431;51.640;5.554;2023-02-11T12:14:22;62.53;;;35.50;;
59790;SDS011;47431;51.640;5.554;2023-02-11T12:16:53;58.03;;;32.58;;
59790;SDS011;47431;51.640;5.554;2023-02-11T12:27:17;43.33;;;30.10;;
59790;SDS011;47431;51.640;5.554;2023-02-11T12:29:56;52.40;;;33.20;;
59790;SDS011;47431;51.640;5.554;2023-02-11T12:32:34;39.97;;;30.73;;
59790;SDS011;47431;51.640;5.554;2023-02-11T12:40:40;47.13;;;29.58;;
59790;SDS011;47431;51.640;5.554;2023-02-11T12:43:49;41.85;;;28.45;;
59790;SDS011;47431;51.640;5.554;2023-02-11T12:54:01;43.30;;;32.13;;
59790;SDS011;47431;51.640;5.554;2023-02-11T13:01:51;56.20;;;29.83;;
59790;SDS011;47431;51.640;5.554;2023-02-11T13:04:23;42.63;;;33.58;;
59790;SDS011;47431;51.640;5.554;2023-02-11T13:06:51;41.65;;;30.27;;
59790;SDS011;47431;51.640;5.554;2023-02-11T13:09:29;38.00;;;28.77;;
59790;SDS011;47431;51.640;5.554;2023-02-11T13:11:56;45.28;;;32.50;;
59790;SDS011;47431;51.640;5.554;2023-02-11T13:16:48;38.10;;;29.23;;
59790;SDS011;47431;51.640;5.554;2023-02-11T13:19:20;37.35;;;28.25;;
59790;SDS011;47431;51.640;5.554;2023-02-11T13:22:07;42.28;;;29.08;;
59790;SDS011;47431;51.640;5.554;2023-02-11T13:24:43;36.40;;;29.52;;
59790;SDS011;47431;51.640;5.554;2023-02-11T13:27:24;47.55;;;27.83;;
59790;SDS011;47431;51.640;5.554;2023-02-11T13:32:26;39.33;;;26.55;;
59790;SDS011;47431;51.640;5.554;2023-02-11T13:34:52;34.13;;;26.40;;
59790;SDS011;47431;51.640;5.554;2023-02-11T13:39:54;35.75;;;25.95;;
59790;SDS011;47431;51.640;5.554;2023-02-11T13:42:19;35.50;;;25.52;;
59790;SDS011;47431;51.640;5.554;2023-02-11T13:44:45;34.15;;;24.35;;
59790;SDS011;47431;51.640;5.554;2023-02-11T13:47:13;33.33;;;25.30;;
59790;SDS011;47431;51.640;5.554;2023-02-11T13:49:48;38.33;;;27.00;;
59790;SDS011;47431;51.640;5.554;2023-02-11T13:54:48;34.10;;;22.48;;
59790;SDS011;47431;51.640;5.554;2023-02-11T13:57:20;39.22;;;26.15;;
59790;SDS011;47431;51.640;5.554;2023-02-11T13:59:50;30.80;;;24.13;;
59790;SDS011;47431;51.640;5.554;2023-02-11T14:23:41;31.58;;;23.17;;
59790;SDS011;47431;51.640;5.554;2023-02-11T14:28:43;30.58;;;24.05;;
59790;SDS011;47431;51.640;5.554;2023-02-11T14:31:16;29.00;;;22.15;;
59790;SDS011;47431;51.640;5.554;2023-02-11T14:33:46;30.67;;;23.90;;
59790;SDS011;47431;51.640;5.554;2023-02-11T14:38:47;31.05;;;23.35;;
59790;SDS011;47431;51.640;5.554;2023-02-11T14:43:45;31.27;;;24.10;;
59790;SDS011;47431;51.640;5.554;2023-02-11T14:46:13;30.35;;;23.63;;
59790;SDS011;47431;51.640;5.554;2023-02-11T14:48:39;35.45;;;24.38;;
59790;SDS011;47431;51.640;5.554;2023-02-11T14:51:08;32.33;;;23.80;;
59790;SDS011;47431;51.640;5.554;2023-02-11T14:53:34;32.95;;;22.35;;
59790;SDS011;47431;51.640;5.554;2023-02-11T14:56:00;32.38;;;24.05;;
59790;SDS011;47431;51.640;5.554;2023-02-11T14:58:30;36.15;;;22.23;;
59790;SDS011;47431;51.640;5.554;2023-02-11T15:03:31;33.63;;;21.70;;
59790;SDS011;47431;51.640;5.554;2023-02-11T15:05:58;28.35;;;21.38;;
59790;SDS011;47431;51.640;5.554;2023-02-11T15:08:24;28.13;;;20.40;;
59790;SDS011;47431;51.640;5.554;2023-02-11T15:10:50;27.42;;;19.15;;
59790;SDS011;47431;51.640;5.554;2023-02-11T15:13:19;31.00;;;18.45;;
59790;SDS011;47431;51.640;5.554;2023-02-11T15:15:45;24.40;;;16.55;;
59790;SDS011;47431;51.640;5.554;2023-02-11T15:18:15;28.85;;;19.67;;
59790;SDS011;47431;51.640;5.554;2023-02-11T15:20:45;28.05;;;19.30;;
59790;SDS011;47431;51.640;5.554;2023-02-11T15:23:12;24.88;;;19.83;;
59790;SDS011;47431;51.640;5.554;2023-02-11T15:25:41;28.40;;;21.27;;
59790;SDS011;47431;51.640;5.554;2023-02-11T15:28:10;27.73;;;20.90;;
59790;SDS011;47431;51.640;5.554;2023-02-11T15:30:38;31.37;;;22.83;;
59790;SDS011;47431;51.640;5.554;2023-02-11T15:33:03;25.08;;;19.33;;
59790;SDS011;47431;51.640;5.554;2023-02-11T15:35:34;27.88;;;20.05;;
59790;SDS011;47431;51.640;5.554;2023-02-11T15:38:00;27.60;;;19.42;;
59790;SDS011;47431;51.640;5.554;2023-02-11T15:40:27;28.20;;;20.52;;
59790;SDS011;47431;51.640;5.554;2023-02-11T15:47:51;28.17;;;20.10;;
59790;SDS011;47431;51.640;5.554;2023-02-11T15:50:23;24.95;;;19.63;;
59790;SDS011;47431;51.640;5.554;2023-02-11T15:52:49;28.23;;;20.77;;
59790;SDS011;47431;51.640;5.554;2023-02-11T15:55:15;32.83;;;20.95;;
59790;SDS011;47431;51.640;5.554;2023-02-11T15:57:42;25.92;;;20.75;;
59790;SDS011;47431;51.640;5.554;2023-02-11T16:00:14;35.35;;;22.70;;
59790;SDS011;47431;51.640;5.554;2023-02-11T16:02:39;36.85;;;23.33;;
59790;SDS011;47431;51.640;5.554;2023-02-11T16:05:22;32.85;;;23.58;;
59790;SDS011;47431;51.640;5.554;2023-02-11T16:07:48;33.28;;;22.77;;
59790;SDS011;47431;51.640;5.554;2023-02-11T16:12:52;32.45;;;23.83;;
59790;SDS011;47431;51.640;5.554;2023-02-11T16:18:02;31.77;;;24.35;;
59790;SDS011;47431;51.640;5.554;2023-02-11T16:20:28;34.33;;;22.52;;
59790;SDS011;47431;51.640;5.554;2023-02-11T16:22:54;31.08;;;22.27;;
59790;SDS011;47431;51.640;5.554;2023-02-11T16:25:19;31.33;;;22.20;;
59790;SDS011;47431;51.640;5.554;2023-02-11T16:27:52;35.85;;;23.60;;
59790;SDS011;47431;51.640;5.554;2023-02-11T16:30:21;34.88;;;25.35;;
59790;SDS011;47431;51.640;5.554;2023-02-11T16:32:47;32.15;;;24.45;;
59790;SDS011;47431;51.640;5.554;2023-02-11T16:35:12;33.28;;;23.95;;
59790;SDS011;47431;51.640;5.554;2023-02-11T16:37:38;34.38;;;23.38;;
59790;SDS011;47431;51.640;5.554;2023-02-11T16:40:03;35.42;;;23.70;;
59790;SDS011;47431;51.640;5.554;2023-02-11T16:42:28;55.63;;;25.23;;
59790;SDS011;47431;51.640;5.554;2023-02-11T16:44:54;42.33;;;28.33;;
59790;SDS011;47431;51.640;5.554;2023-02-11T16:47:23;37.00;;;26.00;;
59790;SDS011;47431;51.640;5.554;2023-02-11T16:49:48;43.80;;;27.00;;
59790;SDS011;47431;51.640;5.554;2023-02-11T16:52:14;50.53;;;26.88;;